首页
METAR-TAF:

METAR-TAF

机场 :

Lavan Island, 伊朗

纬度: 26-48-37N, 经度: 53-21-22E, 海拔: 23米

当前天气观测

该预报发布于58分钟前的08:00 UTC
风速4节,风向
温度 29°C
湿度 55%
气压 1012 hPa
能見度: 6000

METAR: OIBV 030800Z 18004KT 6000 NSC 29/19 Q1012

时间: 13:28 (08:58 UTC)


TAF: 丢失

超过4000个机场的气象观测和天气预报(METAR&TAF报告)。

可查询的气象台以黄色和红色小点在地图上表示。

将鼠标移到小点上方,可查看气象台名称。

然后点击查看天气观测和预报。

如需切换地图:点击带黑十字的绿色按钮放大地图;点击带横线的绿色按钮缩小地图;或者点击绿色箭头查看邻近地区的地图。


METAR-TAF: